Pleasant Lake, Indiana
Current Conditions -  °F | °C
As of 8:55 PM on Tuesday 27 Jan 2015 (Local Time) from KANQ Reporting Station
Clear Clear  
Wind Chill: 16°   Ceiling: Unl
Heat Index: 16°   Visibility: 10mi
Dew Point: 10°   Wind: 0mph
Humidity: 79%   Direction: NA
Pressure: 30.21"   Gusts: NA
Location:  41.58°N, 85.02°W
Report Text: KANQ 280155Z AUTO 00000KT 10SM CLR M09/M12 A3021 RMK
Loading
Personal Weather Stations






























Interactive Weather Map New forecast layout! Learn more

10-Day Weather Forecast

Advertisements
Track Severe Weather on mobile